Time;durP1;ratioP1;P1;durP2;ratioP2;P2;SDS_P1;SDS_P2;PMS_P1;PMS_P2;Temp;Humidity;BMP_temperature;BMP_pressure;BME280_temperature;BME280_humidity;BME280_pressure;Samples;Min_cycle;Max_cycle;Signal;HPM_P1;HPM_P2
2024/01/25 00:01:25;;;;;;;36.70;6.45;;;13.50;99.90;;;;;;5089094;28;20024;-49
2024/01/25 00:03:51;;;;;;;41.60;6.63;;;13.40;99.90;;;;;;5037898;28;20025;-49
2024/01/25 00:06:16;;;;;;;55.47;7.60;;;13.40;99.90;;;;;;5088856;28;20031;-50
2024/01/25 00:08:42;;;;;;;45.78;7.30;;;13.50;99.90;;;;;;5070883;28;20043;-49
2024/01/25 00:11:09;;;;;;;44.00;5.93;;;13.40;99.90;;;;;;5089001;28;20035;-50
2024/01/25 00:13:34;;;;;;;43.53;5.65;;;13.40;99.90;;;;;;5088737;28;20025;-49
2024/01/25 00:16:00;;;;;;;47.72;7.28;;;13.40;99.90;;;;;;5088668;28;20040;-49
2024/01/25 00:18:25;;;;;;;45.47;6.97;;;13.40;99.90;;;;;;5070880;28;20122;-50
2024/01/25 00:20:51;;;;;;;43.58;5.43;;;13.30;99.90;;;;;;5070579;28;20047;-50
2024/01/25 00:23:17;;;;;;;31.10;5.00;;;13.30;99.90;;;;;;5054114;28;20024;-49
2024/01/25 00:25:42;;;;;;;42.88;6.55;;;13.30;99.90;;;;;;5054009;28;20032;-50
2024/01/25 00:28:08;;;;;;;34.47;5.32;;;13.30;99.90;;;;;;5088596;28;20029;-50
2024/01/25 00:30:33;;;;;;;44.38;6.75;;;13.30;99.90;;;;;;5088413;28;20084;-49
2024/01/25 00:33:00;;;;;;;30.88;4.82;;;13.20;99.90;;;;;;5070376;28;20051;-50
2024/01/25 00:35:26;;;;;;;34.70;5.22;;;13.20;99.90;;;;;;5070633;28;20082;-49
2024/01/25 00:37:52;;;;;;;34.35;5.22;;;13.20;99.90;;;;;;5070356;28;20084;-50
2024/01/25 00:40:18;;;;;;;26.45;5.53;;;13.20;99.90;;;;;;5070223;28;20024;-50
2024/01/25 00:42:45;;;;;;;31.85;6.57;;;13.20;99.90;;;;;;5070114;28;20043;-48
2024/01/25 00:45:11;;;;;;;29.02;4.78;;;13.20;99.90;;;;;;5053557;28;20016;-50
2024/01/25 00:47:37;;;;;;;21.70;4.05;;;13.20;99.90;;;;;;5053420;28;20025;-50
2024/01/25 00:50:04;;;;;;;29.75;4.35;;;13.20;99.90;;;;;;5088029;28;20021;-50
2024/01/25 00:52:29;;;;;;;29.13;4.80;;;13.20;99.90;;;;;;5070194;28;20036;-50
2024/01/25 00:54:55;;;;;;;28.90;4.60;;;13.20;99.90;;;;;;5088110;28;20079;-49
2024/01/25 00:57:21;;;;;;;27.13;4.13;;;13.20;99.90;;;;;;5053336;28;20059;-50
2024/01/25 00:59:47;;;;;;;33.75;4.28;;;13.20;99.90;;;;;;5087939;28;20059;-49
2024/01/25 01:02:13;;;;;;;20.38;4.03;;;13.10;99.90;;;;;;5053309;28;20081;-49
2024/01/25 01:04:39;;;;;;;23.88;4.95;;;13.10;99.90;;;;;;5069749;28;20082;-49
2024/01/25 01:07:05;;;;;;;19.40;3.90;;;13.10;99.90;;;;;;5053078;28;20027;-50
2024/01/25 01:09:31;;;;;;;30.92;3.85;;;13.10;99.90;;;;;;5070007;28;20032;-50
2024/01/25 01:11:56;;;;;;;30.13;4.10;;;13.10;99.90;;;;;;5069593;28;20028;-50
2024/01/25 01:14:22;;;;;;;34.17;5.18;;;13.10;99.90;;;;;;5069939;28;20033;-49
2024/01/25 01:16:47;;;;;;;23.95;4.07;;;13.10;99.90;;;;;;5069655;28;20025;-49
2024/01/25 01:19:13;;;;;;;22.95;3.65;;;13.10;99.90;;;;;;5069533;28;20042;-49
2024/01/25 01:21:41;;;;;;;26.13;4.18;;;13.00;99.90;;;;;;5069475;28;20384;-50
2024/01/25 01:24:06;;;;;;;24.42;3.70;;;13.00;99.90;;;;;;5087446;28;20055;-49
2024/01/25 01:26:32;;;;;;;23.30;3.72;;;13.00;99.90;;;;;;5087379;28;20020;-50
2024/01/25 01:28:57;;;;;;;20.55;3.92;;;13.00;99.90;;;;;;5053016;28;20033;-50
2024/01/25 01:31:23;;;;;;;23.20;3.80;;;13.00;99.90;;;;;;5087220;28;20021;-49
2024/01/25 01:33:49;;;;;;;19.52;3.80;;;13.00;99.90;;;;;;5087093;28;20062;-50
2024/01/25 01:36:14;;;;;;;27.70;4.25;;;13.00;99.90;;;;;;5086907;28;20119;-49
2024/01/25 01:38:40;;;;;;;23.45;3.35;;;13.00;99.90;;;;;;5087073;28;20040;-49
2024/01/25 01:41:06;;;;;;;33.63;5.13;;;12.90;99.90;;;;;;5069032;28;20537;-49
2024/01/25 01:43:31;;;;;;;22.50;3.28;;;12.90;99.90;;;;;;5086885;28;20055;-50
2024/01/25 01:46:00;;;;;;;22.92;3.72;;;12.90;99.90;;;;;;5087055;28;20028;-49
2024/01/25 01:48:25;;;;;;;22.60;3.55;;;12.90;99.90;;;;;;5052597;28;20056;-49
2024/01/25 01:50:51;;;;;;;20.25;3.50;;;12.90;99.90;;;;;;5068967;28;20084;-49
2024/01/25 01:53:16;;;;;;;25.50;3.70;;;12.90;99.90;;;;;;5051784;28;20040;-50
2024/01/25 01:55:42;;;;;;;16.95;4.15;;;12.90;99.90;;;;;;5068975;28;20055;-50
2024/01/25 01:58:07;;;;;;;13.63;3.30;;;12.90;99.90;;;;;;5068890;28;20032;-49
2024/01/25 02:00:33;;;;;;;16.92;2.92;;;12.90;99.90;;;;;;5052107;28;20043;-49
2024/01/25 02:02:59;;;;;;;24.80;3.40;;;12.90;99.90;;;;;;5068877;28;20025;-49
2024/01/25 02:05:24;;;;;;;16.98;3.45;;;12.80;99.90;;;;;;5052097;28;20021;-50
2024/01/25 02:07:51;;;;;;;16.30;2.92;;;12.80;99.90;;;;;;5086588;28;20055;-49
2024/01/25 02:10:17;;;;;;;23.63;2.72;;;12.80;99.90;;;;;;5052476;28;20039;-50
2024/01/25 02:12:42;;;;;;;15.93;3.65;;;12.80;99.90;;;;;;5068949;28;20290;-49
2024/01/25 02:15:08;;;;;;;13.90;3.10;;;12.80;99.90;;;;;;5069164;28;20024;-49
2024/01/25 02:17:34;;;;;;;16.63;3.85;;;12.80;99.90;;;;;;5068777;28;20029;-49
2024/01/25 02:20:02;;;;;;;13.05;3.00;;;12.80;99.90;;;;;;5068678;28;20050;-49
2024/01/25 02:22:27;;;;;;;24.02;3.10;;;12.80;99.90;;;;;;5068431;28;20040;-50
2024/01/25 02:24:53;;;;;;;16.90;3.00;;;12.80;99.90;;;;;;5086247;28;20032;-50
2024/01/25 02:27:18;;;;;;;13.27;2.90;;;12.70;99.90;;;;;;5068291;28;20024;-50
2024/01/25 02:29:44;;;;;;;10.80;2.63;;;12.70;99.90;;;;;;5086257;28;20484;-49
2024/01/25 02:32:10;;;;;;;18.98;2.45;;;12.70;99.90;;;;;;5086454;28;20024;-49
2024/01/25 02:34:35;;;;;;;14.05;2.55;;;12.70;99.90;;;;;;5086382;28;20032;-49
2024/01/25 02:37:01;;;;;;;12.40;2.47;;;12.70;99.90;;;;;;5086119;28;20033;-49
2024/01/25 02:39:26;;;;;;;12.27;2.67;;;12.70;99.90;;;;;;5068178;28;20056;-49
2024/01/25 02:41:52;;;;;;;9.57;2.40;;;12.70;99.90;;;;;;5068146;28;20033;-49
2024/01/25 02:44:17;;;;;;;12.23;2.40;;;12.70;99.90;;;;;;5068339;28;20425;-50
2024/01/25 02:46:44;;;;;;;11.13;2.22;;;12.70;99.90;;;;;;5051718;28;20027;-49
2024/01/25 02:49:10;;;;;;;12.57;3.17;;;12.70;99.90;;;;;;5068375;28;20574;-49
2024/01/25 02:51:36;;;;;;;12.25;1.90;;;12.70;99.90;;;;;;5068127;28;20049;-50
2024/01/25 02:54:01;;;;;;;12.60;2.47;;;12.60;99.90;;;;;;5051637;28;20029;-49
2024/01/25 02:56:33;;;;;;;9.52;2.50;;;12.60;99.90;;;;;;5085963;28;20039;-49
2024/01/25 02:58:59;;;;;;;12.65;2.33;;;12.70;99.90;;;;;;5086187;28;20485;-49
2024/01/25 03:01:25;;;;;;;12.30;2.75;;;12.70;99.90;;;;;;5068016;28;20041;-49
2024/01/25 03:03:50;;;;;;;11.30;2.78;;;12.60;99.90;;;;;;5068162;28;20047;-50
2024/01/25 03:06:16;;;;;;;7.68;1.92;;;12.60;99.90;;;;;;5071691;28;20376;-50
2024/01/25 03:08:41;;;;;;;10.50;2.25;;;12.60;99.90;;;;;;5089931;28;20035;-50
2024/01/25 03:11:07;;;;;;;5.53;1.95;;;12.60;99.90;;;;;;5091140;28;20036;-50
2024/01/25 03:13:34;;;;;;;11.52;2.20;;;12.60;99.90;;;;;;5072809;28;20054;-50
2024/01/25 03:15:59;;;;;;;7.90;1.70;;;12.60;99.90;;;;;;5090057;28;20029;-49
2024/01/25 03:18:25;;;;;;;11.25;2.20;;;12.60;99.90;;;;;;5089911;28;20029;-49
2024/01/25 03:20:51;;;;;;;9.15;2.15;;;12.60;99.90;;;;;;5071783;28;20177;-49
2024/01/25 03:23:16;;;;;;;9.43;1.90;;;12.60;99.90;;;;;;5089708;28;20078;-50
2024/01/25 03:25:42;;;;;;;13.13;2.00;;;12.60;99.90;;;;;;5071850;28;20031;-49
2024/01/25 03:28:09;;;;;;;15.30;2.15;;;12.60;99.90;;;;;;5071751;28;20029;-49
2024/01/25 03:30:34;;;;;;;5.95;1.50;;;12.60;99.90;;;;;;5071893;28;20017;-49
2024/01/25 03:33:00;;;;;;;12.45;2.55;;;12.60;99.90;;;;;;5071510;28;20384;-50
2024/01/25 03:35:26;;;;;;;7.30;1.75;;;12.50;99.90;;;;;;5089281;28;20028;-50
2024/01/25 03:37:51;;;;;;;10.35;2.17;;;12.50;99.90;;;;;;5071715;28;20029;-49
2024/01/25 03:40:17;;;;;;;8.07;1.95;;;12.50;99.90;;;;;;5089417;28;20020;-49
2024/01/25 03:42:43;;;;;;;11.50;2.72;;;12.50;99.90;;;;;;5054908;28;20043;-49
2024/01/25 03:45:08;;;;;;;11.35;2.00;;;12.50;99.90;;;;;;5071368;28;20028;-50
2024/01/25 03:47:34;;;;;;;8.18;2.05;;;12.50;99.90;;;;;;5071279;28;20395;-49
2024/01/25 03:49:59;;;;;;;7.55;1.70;;;12.50;99.90;;;;;;5089260;28;20380;-49
2024/01/25 03:52:25;;;;;;;8.82;1.65;;;12.50;99.90;;;;;;5089271;28;20028;-49
2024/01/25 03:54:51;;;;;;;6.68;1.52;;;12.50;99.90;;;;;;5089074;28;20036;-49
2024/01/25 03:57:16;;;;;;;5.95;1.50;;;12.50;99.90;;;;;;5071239;28;20025;-50
2024/01/25 03:59:42;;;;;;;8.65;1.88;;;12.50;99.90;;;;;;5071206;28;20037;-50
2024/01/25 04:02:09;;;;;;;5.82;1.50;;;12.40;99.90;;;;;;5071061;28;20033;-50
2024/01/25 04:04:34;;;;;;;5.43;1.58;;;12.50;99.90;;;;;;5089108;28;20088;-49
2024/01/25 04:07:00;;;;;;;3.88;1.42;;;12.50;99.90;;;;;;5089036;28;20024;-49
2024/01/25 04:09:25;;;;;;;5.03;1.65;;;12.50;99.90;;;;;;5071084;28;20029;-49
2024/01/25 04:11:51;;;;;;;4.57;1.30;;;12.40;99.90;;;;;;5088892;28;20028;-49
2024/01/25 04:14:17;;;;;;;5.65;1.58;;;12.40;99.90;;;;;;5071006;28;20439;-49
2024/01/25 04:16:42;;;;;;;3.85;1.38;;;12.40;99.90;;;;;;5070223;28;20025;-50
2024/01/25 04:19:12;;;;;;;2.80;1.55;;;12.40;99.90;;;;;;5070737;28;20043;-49
2024/01/25 04:21:37;;;;;;;8.70;1.63;;;12.40;99.90;;;;;;5088688;28;20028;-50
2024/01/25 04:24:04;;;;;;;5.93;1.35;;;12.40;99.90;;;;;;5054790;28;20036;-49
2024/01/25 04:26:29;;;;;;;6.25;1.65;;;12.40;99.90;;;;;;5054363;28;20021;-50
2024/01/25 04:28:55;;;;;;;4.93;1.27;;;12.40;99.90;;;;;;5053877;28;20050;-50
2024/01/25 04:31:20;;;;;;;3.75;1.55;;;12.40;99.90;;;;;;5054062;28;20028;-49
2024/01/25 04:33:46;;;;;;;5.70;1.45;;;12.40;99.90;;;;;;5088490;28;20092;-50
2024/01/25 04:36:11;;;;;;;4.82;1.00;;;12.40;99.90;;;;;;5070317;28;20130;-49
2024/01/25 04:38:37;;;;;;;4.43;1.40;;;12.40;99.90;;;;;;5088474;28;20051;-49
2024/01/25 04:41:03;;;;;;;3.35;1.05;;;12.40;99.90;;;;;;5088346;28;20055;-50
2024/01/25 04:43:29;;;;;;;5.38;1.70;;;12.40;99.90;;;;;;5088089;28;20031;-50
2024/01/25 04:45:55;;;;;;;6.43;1.30;;;12.40;99.90;;;;;;5070361;28;20099;-50
2024/01/25 04:48:20;;;;;;;6.85;1.80;;;12.40;99.90;;;;;;5088286;28;20032;-50
2024/01/25 04:50:46;;;;;;;5.28;1.02;;;12.40;99.90;;;;;;5053378;28;20411;-50
2024/01/25 04:53:12;;;;;;;6.13;1.60;;;12.30;99.90;;;;;;5088151;28;20051;-50
2024/01/25 04:55:37;;;;;;;5.75;1.42;;;12.30;99.90;;;;;;5087976;28;20044;-49
2024/01/25 04:58:03;;;;;;;3.63;1.20;;;12.40;99.90;;;;;;5088078;28;20115;-49
2024/01/25 05:00:29;;;;;;;8.07;1.35;;;12.30;99.90;;;;;;5087630;28;20025;-49
2024/01/25 05:02:54;;;;;;;4.35;1.27;;;12.40;99.90;;;;;;5069705;28;20024;-50
2024/01/25 05:05:20;;;;;;;3.33;1.10;;;12.30;99.90;;;;;;5087784;28;20025;-49
2024/01/25 05:07:46;;;;;;;4.88;1.08;;;12.40;99.90;;;;;;5087694;28;20435;-49
2024/01/25 05:10:11;;;;;;;2.90;1.23;;;12.30;99.90;;;;;;5087661;28;20020;-49
2024/01/25 05:12:37;;;;;;;4.50;1.15;;;12.30;99.90;;;;;;5069691;28;20044;-50
2024/01/25 05:15:03;;;;;;;5.82;1.23;;;12.30;99.90;;;;;;5087524;28;20024;-50
2024/01/25 05:17:28;;;;;;;6.10;1.00;;;12.30;99.90;;;;;;5087642;28;20101;-50
2024/01/25 05:19:54;;;;;;;7.75;1.23;;;12.30;99.90;;;;;;5087486;28;20035;-50
2024/01/25 05:22:21;;;;;;;3.22;1.30;;;12.30;99.90;;;;;;5052668;28;20043;-50
2024/01/25 05:24:47;;;;;;;3.92;1.40;;;12.30;99.90;;;;;;5087251;28;20036;-49
2024/01/25 05:27:12;;;;;;;3.70;1.23;;;12.30;99.90;;;;;;5069412;28;20115;-49
2024/01/25 05:29:38;;;;;;;6.22;1.52;;;12.30;99.90;;;;;;5086572;28;20029;-49
2024/01/25 05:32:04;;;;;;;6.10;1.38;;;12.30;99.90;;;;;;5069359;28;20028;-50
2024/01/25 05:34:29;;;;;;;4.45;1.63;;;12.30;99.90;;;;;;5087433;28;20096;-49
2024/01/25 05:36:55;;;;;;;7.13;1.63;;;12.30;99.90;;;;;;5068996;28;20056;-49
2024/01/25 05:39:20;;;;;;;9.43;2.50;;;12.30;99.90;;;;;;5087185;28;20028;-50
2024/01/25 05:41:46;;;;;;;6.10;1.25;;;12.30;99.90;;;;;;5087055;28;20052;-49
2024/01/25 05:44:12;;;;;;;6.90;1.90;;;12.40;99.90;;;;;;5087021;28;20020;-50
2024/01/25 05:46:38;;;;;;;3.83;1.70;;;12.40;99.90;;;;;;5052296;28;20469;-49
2024/01/25 05:49:03;;;;;;;10.65;1.80;;;12.30;99.90;;;;;;5086666;28;20055;-49
2024/01/25 05:51:29;;;;;;;11.15;2.55;;;12.40;99.90;;;;;;5082002;28;20032;-49
2024/01/25 05:53:55;;;;;;;7.57;2.38;;;12.30;99.90;;;;;;5072565;28;20024;-49
2024/01/25 05:56:20;;;;;;;13.23;2.20;;;12.40;99.90;;;;;;5107312;28;20031;-49
2024/01/25 05:58:46;;;;;;;9.88;2.22;;;12.40;99.90;;;;;;5072511;28;20035;-49
2024/01/25 06:01:11;;;;;;;10.27;2.67;;;12.40;99.90;;;;;;5088624;28;20096;-49
2024/01/25 06:03:37;;;;;;;14.73;2.85;;;12.40;99.90;;;;;;5106883;28;20028;-49
2024/01/25 06:06:02;;;;;;;13.95;2.67;;;12.40;99.90;;;;;;5088561;28;20051;-49
2024/01/25 06:08:28;;;;;;;19.63;3.97;;;12.40;99.90;;;;;;5106782;28;20024;-49
2024/01/25 06:10:53;;;;;;;35.20;6.25;;;12.40;99.90;;;;;;5071900;28;20031;-50
2024/01/25 06:13:19;;;;;;;35.45;4.95;;;12.40;99.90;;;;;;5072055;28;20020;-49
2024/01/25 06:15:44;;;;;;;36.65;5.95;;;12.40;99.90;;;;;;5086739;28;20067;-50
2024/01/25 06:18:10;;;;;;;29.08;5.45;;;12.40;99.90;;;;;;5084150;28;20028;-50
2024/01/25 06:20:36;;;;;;;32.83;6.43;;;12.40;99.90;;;;;;5085514;28;20062;-50
2024/01/25 06:23:01;;;;;;;38.25;6.88;;;12.40;99.90;;;;;;5068498;28;20227;-50
2024/01/25 06:25:30;;;;;;;34.40;6.75;;;12.40;99.90;;;;;;5066760;28;20392;-50
2024/01/25 06:27:59;;;;;;;54.25;7.35;;;12.40;99.90;;;;;;5085056;28;20021;-49
2024/01/25 06:30:25;;;;;;;50.67;7.38;;;12.40;99.90;;;;;;5074512;28;20024;-49
2024/01/25 06:32:50;;;;;;;53.38;7.15;;;12.40;99.90;;;;;;5085045;28;20036;-49
2024/01/25 06:35:16;;;;;;;46.53;8.05;;;12.40;99.90;;;;;;5084542;28;20028;-49
2024/01/25 06:37:42;;;;;;;39.05;6.05;;;12.40;99.90;;;;;;5068362;28;20020;-49
2024/01/25 06:40:07;;;;;;;53.47;7.85;;;12.40;99.90;;;;;;5085821;28;20025;-50
2024/01/25 06:42:33;;;;;;;72.97;8.05;;;12.40;99.90;;;;;;5065773;28;20043;-50
2024/01/25 06:44:58;;;;;;;47.33;8.07;;;12.40;99.90;;;;;;5065627;28;20476;-50
2024/01/25 06:47:24;;;;;;;42.08;8.77;;;12.40;99.90;;;;;;5068034;28;20021;-49
2024/01/25 06:49:51;;;;;;;56.70;8.50;;;12.40;99.90;;;;;;5050677;28;20056;-49
2024/01/25 06:52:17;;;;;;;59.55;8.95;;;12.40;99.90;;;;;;5050251;28;20024;-49
2024/01/25 06:54:43;;;;;;;56.17;8.23;;;12.40;99.90;;;;;;5085518;28;20090;-49
2024/01/25 06:57:08;;;;;;;61.30;9.55;;;12.40;99.90;;;;;;5084566;28;20028;-50
2024/01/25 06:59:34;;;;;;;44.47;8.30;;;12.40;99.90;;;;;;5049300;28;20127;-50
2024/01/25 07:02:02;;;;;;;44.45;8.07;;;12.40;99.90;;;;;;5085661;28;20021;-50
2024/01/25 07:04:28;;;;;;;46.20;8.77;;;12.50;99.90;;;;;;5081039;28;20040;-49
2024/01/25 07:06:53;;;;;;;41.30;7.70;;;12.40;99.90;;;;;;5063922;28;20028;-50
2024/01/25 07:09:19;;;;;;;46.28;8.52;;;12.40;99.90;;;;;;5065173;28;20088;-49
2024/01/25 07:11:44;;;;;;;46.38;8.75;;;12.40;99.90;;;;;;5067241;28;20071;-49
2024/01/25 07:14:10;;;;;;;39.38;7.15;;;12.40;99.90;;;;;;5083171;28;20078;-48
2024/01/25 07:16:36;;;;;;;46.75;7.57;;;12.40;99.90;;;;;;5064816;28;20052;-49
2024/01/25 07:19:02;;;;;;;43.83;6.85;;;12.40;99.90;;;;;;5082373;28;20039;-49
2024/01/25 07:21:31;;;;;;;40.95;6.95;;;12.40;99.90;;;;;;5083465;28;20033;-50
2024/01/25 07:23:59;;;;;;;34.45;6.55;;;12.40;99.90;;;;;;5065061;28;20025;-50
2024/01/25 07:26:24;;;;;;;37.20;6.45;;;12.40;99.90;;;;;;5064819;28;20024;-49
2024/01/25 07:28:53;;;;;;;45.30;6.22;;;12.40;99.90;;;;;;5063335;28;20028;-49
2024/01/25 07:31:20;;;;;;;35.05;6.28;;;12.40;99.90;;;;;;5066199;28;20036;-50
2024/01/25 07:33:45;;;;;;;31.40;5.32;;;12.40;99.90;;;;;;5067897;28;20111;-50
2024/01/25 07:36:11;;;;;;;37.45;5.75;;;12.40;99.90;;;;;;5049462;28;20054;-49
2024/01/25 07:38:36;;;;;;;31.33;5.75;;;12.40;99.90;;;;;;5085633;28;20037;-49
2024/01/25 07:41:02;;;;;;;35.05;5.35;;;12.40;99.90;;;;;;5067555;28;20039;-49
2024/01/25 07:43:27;;;;;;;30.80;5.15;;;12.40;99.90;;;;;;5085618;28;20029;-49
2024/01/25 07:45:53;;;;;;;31.08;4.88;;;12.40;99.90;;;;;;5065687;28;20028;-50
2024/01/25 07:48:19;;;;;;;29.02;4.78;;;12.40;99.90;;;;;;5067550;28;20052;-49
2024/01/25 07:50:44;;;;;;;20.38;4.93;;;12.40;99.90;;;;;;5050291;28;20016;-50
2024/01/25 07:53:12;;;;;;;29.52;5.30;;;12.40;99.90;;;;;;5051097;28;20053;-49
2024/01/25 07:55:37;;;;;;;22.52;5.28;;;12.30;99.90;;;;;;5070487;28;20094;-50
2024/01/25 07:58:03;;;;;;;25.75;4.88;;;12.30;99.90;;;;;;5088576;28;20033;-49
2024/01/25 08:00:28;;;;;;;36.65;5.15;;;12.30;99.90;;;;;;5070902;28;20029;-50
2024/01/25 08:02:54;;;;;;;27.83;6.05;;;12.40;99.90;;;;;;5071131;28;20067;-50
2024/01/25 08:05:20;;;;;;;30.58;6.18;;;12.40;99.90;;;;;;5069891;28;20039;-49
2024/01/25 08:07:46;;;;;;;33.13;5.25;;;12.40;99.90;;;;;;5087668;28;20029;-49
2024/01/25 08:10:12;;;;;;;35.08;5.80;;;12.40;99.90;;;;;;5069985;28;20013;-50
2024/01/25 08:12:39;;;;;;;26.45;5.07;;;12.40;99.90;;;;;;5055369;28;20569;-49
2024/01/25 08:15:06;;;;;;;38.03;5.68;;;12.40;99.90;;;;;;5083342;28;20092;-50
2024/01/25 08:17:31;;;;;;;40.33;6.85;;;12.40;99.90;;;;;;5070866;28;20032;-49
2024/01/25 08:19:57;;;;;;;33.88;5.95;;;12.40;99.90;;;;;;5086783;28;20044;-49
2024/01/25 08:22:23;;;;;;;29.60;5.43;;;12.40;99.90;;;;;;5085370;28;20100;-49
2024/01/25 08:24:48;;;;;;;26.20;5.35;;;12.40;99.90;;;;;;5069131;28;20043;-49
2024/01/25 08:27:14;;;;;;;39.53;5.85;;;12.50;99.90;;;;;;5069720;28;20033;-50
2024/01/25 08:29:40;;;;;;;28.38;5.10;;;12.40;99.90;;;;;;5070506;28;20033;-49
2024/01/25 08:32:06;;;;;;;44.15;6.43;;;12.50;99.90;;;;;;5067441;28;20050;-50
2024/01/25 08:34:32;;;;;;;27.92;5.25;;;12.40;99.90;;;;;;5089043;28;20450;-49
2024/01/25 08:36:57;;;;;;;28.90;4.78;;;12.50;99.90;;;;;;5082420;28;20060;-49
2024/01/25 08:39:23;;;;;;;29.27;5.55;;;12.40;99.90;;;;;;5067044;28;20037;-49
2024/01/25 08:41:50;;;;;;;33.10;5.40;;;12.50;99.90;;;;;;5066317;28;20060;-50
2024/01/25 08:44:15;;;;;;;48.72;6.85;;;12.40;99.90;;;;;;5084217;28;20035;-50
2024/01/25 08:46:42;;;;;;;25.95;5.07;;;12.50;99.90;;;;;;5066465;28;20029;-50
2024/01/25 08:49:09;;;;;;;38.60;5.32;;;12.50;99.90;;;;;;5086317;28;20023;-49
2024/01/25 08:51:35;;;;;;;33.53;5.93;;;12.50;99.90;;;;;;5067638;28;20028;-49
2024/01/25 08:54:03;;;;;;;38.38;5.93;;;12.50;99.90;;;;;;5085091;28;20044;-49
2024/01/25 08:56:29;;;;;;;32.22;5.18;;;12.50;99.90;;;;;;5068529;28;20024;-49
2024/01/25 08:58:54;;;;;;;41.60;6.13;;;12.50;99.90;;;;;;5050537;28;20092;-49
2024/01/25 09:01:20;;;;;;;32.10;5.65;;;12.50;99.90;;;;;;5084670;28;20028;-49
2024/01/25 09:03:46;;;;;;;33.67;5.53;;;12.50;99.90;;;;;;5084409;28;20035;-49
2024/01/25 09:06:12;;;;;;;34.83;4.93;;;12.50;99.90;;;;;;5084307;28;20025;-50
2024/01/25 09:08:38;;;;;;;25.90;4.35;;;12.50;99.90;;;;;;5087403;28;20027;-49
2024/01/25 09:11:03;;;;;;;23.73;4.30;;;12.50;99.90;;;;;;5085917;28;20047;-49
2024/01/25 09:13:29;;;;;;;28.63;5.60;;;12.50;99.90;;;;;;5069117;28;20033;-49
2024/01/25 09:15:55;;;;;;;32.75;5.13;;;12.50;99.90;;;;;;5087314;28;20028;-50
2024/01/25 09:18:21;;;;;;;38.05;5.13;;;12.50;99.90;;;;;;5068927;28;20037;-50
2024/01/25 09:20:48;;;;;;;37.72;5.47;;;12.50;99.90;;;;;;5085311;28;20138;-49
2024/01/25 09:23:16;;;;;;;27.52;5.20;;;12.50;99.90;;;;;;5087124;28;20037;-49
2024/01/25 09:25:42;;;;;;;29.85;4.75;;;12.50;99.90;;;;;;5069681;28;20021;-49
2024/01/25 09:28:08;;;;;;;37.42;5.43;;;12.50;99.90;;;;;;5069251;28;20503;-50
2024/01/25 09:30:33;;;;;;;34.60;5.53;;;12.50;99.90;;;;;;5086936;28;20467;-50
2024/01/25 09:32:59;;;;;;;27.45;5.55;;;12.50;99.90;;;;;;5070128;28;20024;-50
2024/01/25 09:35:25;;;;;;;28.63;5.82;;;12.50;99.90;;;;;;5068208;28;20035;-50
2024/01/25 09:37:52;;;;;;;32.25;5.25;;;12.60;99.90;;;;;;5067082;28;20037;-49
2024/01/25 09:40:21;;;;;;;35.08;5.68;;;12.60;99.90;;;;;;5085197;28;20098;-49
2024/01/25 09:42:48;;;;;;;36.47;5.82;;;12.60;99.90;;;;;;5084051;28;20033;-50
2024/01/25 09:45:16;;;;;;;43.45;5.43;;;12.60;99.90;;;;;;5083999;28;20025;-50
2024/01/25 09:47:42;;;;;;;42.40;6.78;;;12.60;99.90;;;;;;5084296;28;20509;-50
2024/01/25 09:50:08;;;;;;;55.13;6.30;;;12.60;99.90;;;;;;5068094;28;20017;-49
2024/01/25 09:52:34;;;;;;;56.22;7.10;;;12.60;99.90;;;;;;5083215;28;20040;-49
2024/01/25 09:54:59;;;;;;;48.95;7.13;;;12.60;99.90;;;;;;5051580;28;20055;-49
2024/01/25 09:57:27;;;;;;;44.05;6.65;;;12.60;99.90;;;;;;5032826;28;20028;-49
2024/01/25 09:59:54;;;;;;;45.50;6.97;;;12.70;99.90;;;;;;5035209;28;20028;-49
2024/01/25 10:02:20;;;;;;;36.08;5.22;;;12.70;99.90;;;;;;5072544;28;20027;-49
2024/01/25 10:04:50;;;;;;;37.92;5.22;;;12.60;99.90;;;;;;5068263;28;20033;-49
2024/01/25 10:07:16;;;;;;;53.30;5.40;;;12.70;99.90;;;;;;5088599;28;20101;-50
2024/01/25 10:09:44;;;;;;;46.45;6.80;;;12.70;99.90;;;;;;5068213;28;20456;-49
2024/01/25 10:12:10;;;;;;;45.33;6.05;;;12.70;99.90;;;;;;5102803;28;20027;-49
2024/01/25 10:14:36;;;;;;;202.45;15.93;;;12.80;99.90;;;;;;5087219;28;20032;-50
2024/01/25 10:17:02;;;;;;;105.60;8.07;;;12.80;99.90;;;;;;5071324;28;20024;-49
2024/01/25 10:19:27;;;;;;;72.57;7.90;;;12.80;99.90;;;;;;5084327;28;20427;-48
2024/01/25 10:21:53;;;;;;;57.10;6.72;;;12.80;99.90;;;;;;5047710;28;20039;-49
2024/01/25 10:24:19;;;;;;;68.47;7.72;;;12.80;99.90;;;;;;5049281;28;20089;-49
2024/01/25 10:26:44;;;;;;;35.28;4.95;;;12.80;99.90;;;;;;5084491;28;20028;-49
2024/01/25 10:29:10;;;;;;;39.72;5.95;;;12.80;99.90;;;;;;5102009;28;20079;-49
2024/01/25 10:31:40;;;;;;;51.70;6.15;;;12.80;99.90;;;;;;5080853;28;20036;-49
2024/01/25 10:34:07;;;;;;;44.05;6.25;;;12.90;99.90;;;;;;5082044;28;20484;-49
2024/01/25 10:36:32;;;;;;;61.30;6.85;;;12.90;99.90;;;;;;5064589;28;20028;-49
2024/01/25 10:38:58;;;;;;;76.85;7.22;;;12.90;99.90;;;;;;5064962;28;20047;-50
2024/01/25 10:41:24;;;;;;;79.72;7.68;;;12.90;99.90;;;;;;5064948;28;20088;-49
2024/01/25 10:43:49;;;;;;;76.22;8.82;;;13.00;99.90;;;;;;5066362;28;20054;-49
2024/01/25 10:46:15;;;;;;;58.20;6.88;;;13.00;99.90;;;;;;5064579;28;20079;-49
2024/01/25 10:48:41;;;;;;;72.60;7.38;;;13.00;99.90;;;;;;5086503;28;20033;-48
2024/01/25 10:51:06;;;;;;;78.25;8.50;;;13.00;99.90;;;;;;5034562;28;20054;-49
2024/01/25 10:53:32;;;;;;;71.93;7.03;;;13.00;99.90;;;;;;5045657;28;20036;-50
2024/01/25 10:55:58;;;;;;;85.55;10.02;;;13.10;99.90;;;;;;5082399;28;20020;-50
2024/01/25 10:58:24;;;;;;;87.43;10.23;;;13.10;99.90;;;;;;5064568;28;20052;-49
2024/01/25 11:00:55;;;;;;;99.57;10.30;;;13.10;99.90;;;;;;5061272;28;20037;-50
2024/01/25 11:03:26;;;;;;;106.07;10.88;;;13.10;99.90;;;;;;5054041;28;20039;-49
2024/01/25 11:05:52;;;;;;;93.32;9.98;;;13.20;99.90;;;;;;5095878;28;20113;-49
2024/01/25 11:08:19;;;;;;;100.82;10.20;;;13.20;99.90;;;;;;5079979;28;20042;-49
2024/01/25 11:10:52;;;;;;;143.75;13.38;;;13.20;99.90;;;;;;5056227;28;20024;-49
2024/01/25 11:13:22;;;;;;;86.10;8.73;;;13.30;99.90;;;;;;5057827;28;20020;-49
2024/01/25 11:15:48;;;;;;;108.13;10.57;;;13.30;99.90;;;;;;5059717;28;20500;-49
2024/01/25 11:18:14;;;;;;;94.28;9.90;;;13.30;99.90;;;;;;5076244;28;20028;-49
2024/01/25 11:20:40;;;;;;;75.03;7.00;;;13.30;99.90;;;;;;5079286;28;20055;-49
2024/01/25 11:23:08;;;;;;;61.85;6.43;;;13.40;99.90;;;;;;5068101;28;20420;-49
2024/01/25 11:25:34;;;;;;;58.20;7.05;;;13.40;99.90;;;;;;5067861;28;20091;-49
2024/01/25 11:28:04;;;;;;;59.05;7.40;;;13.40;99.90;;;;;;5070328;28;20056;-49
2024/01/25 11:30:32;;;;;;;63.85;7.68;;;13.40;99.90;;;;;;5062544;28;20032;-49
2024/01/25 11:32:57;;;;;;;73.00;7.88;;;13.40;99.90;;;;;;5078380;28;20039;-49
2024/01/25 11:35:23;;;;;;;75.60;9.20;;;13.40;99.90;;;;;;5088200;28;20384;-49
2024/01/25 11:37:51;;;;;;;56.75;7.40;;;13.50;99.90;;;;;;5074093;28;20127;-49
2024/01/25 11:40:16;;;;;;;87.57;9.40;;;13.50;99.90;;;;;;5078075;28;20032;-49
2024/01/25 11:42:43;;;;;;;102.50;10.80;;;13.50;99.90;;;;;;5097779;28;20396;-49
2024/01/25 11:45:10;;;;;;;51.22;5.90;;;13.50;99.90;;;;;;5062890;28;20025;-49
2024/01/25 11:47:36;;;;;;;39.22;5.18;;;13.50;99.90;;;;;;5078562;28;20036;-49
2024/01/25 11:50:03;;;;;;;70.22;6.28;;;13.50;99.90;;;;;;5085981;28;20067;-49
2024/01/25 11:52:28;;;;;;;36.85;6.45;;;13.50;99.90;;;;;;5086774;28;20088;-49
2024/01/25 11:54:54;;;;;;;39.65;5.78;;;13.60;99.90;;;;;;5068748;28;20028;-49
2024/01/25 11:57:20;;;;;;;41.15;4.88;;;13.60;99.90;;;;;;5068994;28;20040;-49
2024/01/25 11:59:46;;;;;;;59.75;8.18;;;13.60;99.90;;;;;;5082837;28;20040;-49
2024/01/25 12:02:12;;;;;;;55.92;7.55;;;13.60;99.90;;;;;;5080288;28;20381;-49
2024/01/25 12:04:39;;;;;;;88.45;10.13;;;13.60;99.90;;;;;;5063056;28;20044;-49
2024/01/25 12:07:05;;;;;;;71.43;8.18;;;13.60;99.90;;;;;;5053251;28;20029;-49
2024/01/25 12:09:30;;;;;;;73.93;8.75;;;13.60;99.90;;;;;;5049330;28;20080;-49
2024/01/25 12:11:56;;;;;;;89.60;9.52;;;13.60;99.90;;;;;;5083876;28;20024;-49
2024/01/25 12:14:24;;;;;;;78.20;8.77;;;13.70;99.90;;;;;;5079304;28;20040;-49
2024/01/25 12:16:49;;;;;;;86.95;9.75;;;13.60;99.90;;;;;;5082903;28;20084;-48
2024/01/25 12:19:15;;;;;;;59.58;8.27;;;13.70;99.90;;;;;;5059307;28;20063;-49
2024/01/25 12:21:44;;;;;;;71.72;8.75;;;13.70;99.90;;;;;;5058643;28;20028;-49
2024/01/25 12:24:10;;;;;;;81.35;8.90;;;13.70;99.90;;;;;;5087208;28;20040;-49
2024/01/25 12:26:35;;;;;;;55.65;8.10;;;13.70;99.90;;;;;;5064601;28;20028;-49
2024/01/25 12:29:01;;;;;;;70.97;8.38;;;13.70;99.90;;;;;;5053008;28;20035;-48
2024/01/25 12:31:27;;;;;;;80.43;9.68;;;13.70;99.90;;;;;;5086410;28;20040;-49